sensor_id;sensor_type;location;lat;lon;timestamp;P1;durP1;ratioP1;P2;durP2;ratioP2
43311;SDS011;30041;48.300;16.352;2023-03-14T00:01:07;1.20;;;0.80;;
43311;SDS011;30041;48.300;16.352;2023-03-14T00:03:36;0.65;;;0.50;;
43311;SDS011;30041;48.300;16.352;2023-03-14T00:06:03;1.50;;;0.88;;
43311;SDS011;30041;48.300;16.352;2023-03-14T00:08:29;1.48;;;0.90;;
43311;SDS011;30041;48.300;16.352;2023-03-14T00:10:55;1.17;;;0.70;;
43311;SDS011;30041;48.300;16.352;2023-03-14T00:13:20;0.75;;;0.70;;
43311;SDS011;30041;48.300;16.352;2023-03-14T00:15:46;1.00;;;0.70;;
43311;SDS011;30041;48.300;16.352;2023-03-14T00:18:12;1.00;;;0.68;;
43311;SDS011;30041;48.300;16.352;2023-03-14T00:20:37;1.13;;;0.60;;
43311;SDS011;30041;48.300;16.352;2023-03-14T00:23:03;0.93;;;0.65;;
43311;SDS011;30041;48.300;16.352;2023-03-14T00:25:28;0.70;;;0.50;;
43311;SDS011;30041;48.300;16.352;2023-03-14T00:27:54;0.80;;;0.50;;
43311;SDS011;30041;48.300;16.352;2023-03-14T00:30:19;0.95;;;0.50;;
43311;SDS011;30041;48.300;16.352;2023-03-14T00:32:45;0.70;;;0.60;;
43311;SDS011;30041;48.300;16.352;2023-03-14T00:35:10;1.00;;;0.68;;
43311;SDS011;30041;48.300;16.352;2023-03-14T00:37:36;0.85;;;0.60;;
43311;SDS011;30041;48.300;16.352;2023-03-14T00:40:02;0.95;;;0.65;;
43311;SDS011;30041;48.300;16.352;2023-03-14T00:42:27;1.40;;;0.80;;
43311;SDS011;30041;48.300;16.352;2023-03-14T00:44:53;0.82;;;0.60;;
43311;SDS011;30041;48.300;16.352;2023-03-14T00:47:18;0.82;;;0.50;;
43311;SDS011;30041;48.300;16.352;2023-03-14T00:49:44;0.55;;;0.52;;
43311;SDS011;30041;48.300;16.352;2023-03-14T00:52:09;1.00;;;0.60;;
43311;SDS011;30041;48.300;16.352;2023-03-14T00:54:35;1.05;;;0.70;;
43311;SDS011;30041;48.300;16.352;2023-03-14T00:57:00;0.65;;;0.60;;
43311;SDS011;30041;48.300;16.352;2023-03-14T00:59:26;1.58;;;0.60;;
43311;SDS011;30041;48.300;16.352;2023-03-14T01:01:52;1.08;;;0.70;;
43311;SDS011;30041;48.300;16.352;2023-03-14T01:04:17;0.95;;;0.60;;
43311;SDS011;30041;48.300;16.352;2023-03-14T01:06:43;0.80;;;0.50;;
43311;SDS011;30041;48.300;16.352;2023-03-14T01:09:08;0.52;;;0.50;;
43311;SDS011;30041;48.300;16.352;2023-03-14T01:11:34;0.77;;;0.60;;
43311;SDS011;30041;48.300;16.352;2023-03-14T01:14:00;1.05;;;0.52;;
43311;SDS011;30041;48.300;16.352;2023-03-14T01:16:27;0.88;;;0.70;;
43311;SDS011;30041;48.300;16.352;2023-03-14T01:18:54;0.50;;;0.45;;
43311;SDS011;30041;48.300;16.352;2023-03-14T01:21:21;0.73;;;0.60;;
43311;SDS011;30041;48.300;16.352;2023-03-14T01:23:49;0.80;;;0.57;;
43311;SDS011;30041;48.300;16.352;2023-03-14T01:26:19;0.85;;;0.50;;
43311;SDS011;30041;48.300;16.352;2023-03-14T01:28:46;0.90;;;0.50;;
43311;SDS011;30041;48.300;16.352;2023-03-14T01:31:12;1.08;;;0.70;;
43311;SDS011;30041;48.300;16.352;2023-03-14T01:33:38;0.97;;;0.60;;
43311;SDS011;30041;48.300;16.352;2023-03-14T01:36:05;0.57;;;0.50;;
43311;SDS011;30041;48.300;16.352;2023-03-14T01:38:32;0.75;;;0.50;;
43311;SDS011;30041;48.300;16.352;2023-03-14T01:40:59;0.85;;;0.57;;
43311;SDS011;30041;48.300;16.352;2023-03-14T01:43:25;0.65;;;0.40;;
43311;SDS011;30041;48.300;16.352;2023-03-14T01:48:48;0.82;;;0.63;;
43311;SDS011;30041;48.300;16.352;2023-03-14T01:51:27;0.73;;;0.60;;
43311;SDS011;30041;48.300;16.352;2023-03-14T01:53:59;0.52;;;0.40;;
43311;SDS011;30041;48.300;16.352;2023-03-14T01:56:34;0.70;;;0.60;;
43311;SDS011;30041;48.300;16.352;2023-03-14T01:59:02;0.70;;;0.55;;
43311;SDS011;30041;48.300;16.352;2023-03-14T02:01:31;0.70;;;0.50;;
43311;SDS011;30041;48.300;16.352;2023-03-14T02:03:58;0.90;;;0.40;;
43311;SDS011;30041;48.300;16.352;2023-03-14T02:06:30;0.55;;;0.40;;
43311;SDS011;30041;48.300;16.352;2023-03-14T02:09:02;0.57;;;0.40;;
43311;SDS011;30041;48.300;16.352;2023-03-14T02:11:28;0.70;;;0.50;;
43311;SDS011;30041;48.300;16.352;2023-03-14T02:13:55;0.60;;;0.50;;
43311;SDS011;30041;48.300;16.352;2023-03-14T02:16:23;0.40;;;0.40;;
43311;SDS011;30041;48.300;16.352;2023-03-14T02:18:49;0.73;;;0.52;;
43311;SDS011;30041;48.300;16.352;2023-03-14T02:21:27;0.70;;;0.50;;
43311;SDS011;30041;48.300;16.352;2023-03-14T02:24:15;0.70;;;0.47;;
43311;SDS011;30041;48.300;16.352;2023-03-14T02:27:07;0.32;;;0.32;;
43311;SDS011;30041;48.300;16.352;2023-03-14T02:29:52;0.65;;;0.50;;
43311;SDS011;30041;48.300;16.352;2023-03-14T02:32:21;0.40;;;0.35;;
43311;SDS011;30041;48.300;16.352;2023-03-14T02:34:50;0.45;;;0.30;;
43311;SDS011;30041;48.300;16.352;2023-03-14T02:37:20;0.63;;;0.40;;
43311;SDS011;30041;48.300;16.352;2023-03-14T02:39:48;0.50;;;0.50;;
43311;SDS011;30041;48.300;16.352;2023-03-14T02:42:14;0.40;;;0.40;;
43311;SDS011;30041;48.300;16.352;2023-03-14T02:47:54;0.50;;;0.40;;
43311;SDS011;30041;48.300;16.352;2023-03-14T02:50:25;0.50;;;0.30;;
43311;SDS011;30041;48.300;16.352;2023-03-14T02:52:54;0.40;;;0.38;;
43311;SDS011;30041;48.300;16.352;2023-03-14T02:55:23;0.85;;;0.50;;
43311;SDS011;30041;48.300;16.352;2023-03-14T02:57:49;0.50;;;0.40;;
43311;SDS011;30041;48.300;16.352;2023-03-14T03:00:15;0.88;;;0.50;;
43311;SDS011;30041;48.300;16.352;2023-03-14T03:02:41;0.30;;;0.30;;
43311;SDS011;30041;48.300;16.352;2023-03-14T03:05:06;0.40;;;0.30;;
43311;SDS011;30041;48.300;16.352;2023-03-14T03:07:32;0.52;;;0.47;;
43311;SDS011;30041;48.300;16.352;2023-03-14T03:09:58;0.60;;;0.40;;
43311;SDS011;30041;48.300;16.352;2023-03-14T03:12:23;0.60;;;0.40;;
43311;SDS011;30041;48.300;16.352;2023-03-14T03:14:49;0.43;;;0.30;;
43311;SDS011;30041;48.300;16.352;2023-03-14T03:17:14;0.32;;;0.30;;
43311;SDS011;30041;48.300;16.352;2023-03-14T03:19:40;0.40;;;0.40;;
43311;SDS011;30041;48.300;16.352;2023-03-14T03:22:06;0.50;;;0.32;;
43311;SDS011;30041;48.300;16.352;2023-03-14T03:24:31;0.50;;;0.40;;
43311;SDS011;30041;48.300;16.352;2023-03-14T03:26:59;0.38;;;0.30;;
43311;SDS011;30041;48.300;16.352;2023-03-14T03:29:24;0.60;;;0.40;;
43311;SDS011;30041;48.300;16.352;2023-03-14T03:31:50;0.40;;;0.40;;
43311;SDS011;30041;48.300;16.352;2023-03-14T03:34:16;0.40;;;0.30;;
43311;SDS011;30041;48.300;16.352;2023-03-14T03:36:41;0.30;;;0.30;;
43311;SDS011;30041;48.300;16.352;2023-03-14T03:39:07;0.47;;;0.28;;
43311;SDS011;30041;48.300;16.352;2023-03-14T03:41:33;0.40;;;0.35;;
43311;SDS011;30041;48.300;16.352;2023-03-14T03:43:58;0.60;;;0.45;;
43311;SDS011;30041;48.300;16.352;2023-03-14T03:46:24;0.30;;;0.20;;
43311;SDS011;30041;48.300;16.352;2023-03-14T03:48:56;0.30;;;0.30;;
43311;SDS011;30041;48.300;16.352;2023-03-14T03:51:24;0.63;;;0.30;;
43311;SDS011;30041;48.300;16.352;2023-03-14T03:53:50;0.10;;;0.10;;
43311;SDS011;30041;48.300;16.352;2023-03-14T03:56:16;0.40;;;0.30;;
43311;SDS011;30041;48.300;16.352;2023-03-14T03:58:42;0.60;;;0.40;;
43311;SDS011;30041;48.300;16.352;2023-03-14T04:01:07;0.32;;;0.30;;
43311;SDS011;30041;48.300;16.352;2023-03-14T04:03:34;0.60;;;0.30;;
43311;SDS011;30041;48.300;16.352;2023-03-14T04:06:04;0.45;;;0.20;;
43311;SDS011;30041;48.300;16.352;2023-03-14T04:08:31;0.40;;;0.30;;
43311;SDS011;30041;48.300;16.352;2023-03-14T04:10:57;0.20;;;0.20;;
43311;SDS011;30041;48.300;16.352;2023-03-14T04:13:24;0.20;;;0.20;;
43311;SDS011;30041;48.300;16.352;2023-03-14T04:15:51;0.43;;;0.35;;
43311;SDS011;30041;48.300;16.352;2023-03-14T04:18:17;0.40;;;0.30;;
43311;SDS011;30041;48.300;16.352;2023-03-14T04:20:43;0.30;;;0.30;;
43311;SDS011;30041;48.300;16.352;2023-03-14T04:23:09;0.25;;;0.20;;
43311;SDS011;30041;48.300;16.352;2023-03-14T04:25:34;0.30;;;0.25;;
43311;SDS011;30041;48.300;16.352;2023-03-14T04:28:00;0.45;;;0.30;;
43311;SDS011;30041;48.300;16.352;2023-03-14T04:30:26;0.47;;;0.32;;
43311;SDS011;30041;48.300;16.352;2023-03-14T04:32:51;0.50;;;0.30;;
43311;SDS011;30041;48.300;16.352;2023-03-14T04:35:17;0.32;;;0.30;;
43311;SDS011;30041;48.300;16.352;2023-03-14T04:37:42;0.30;;;0.30;;
43311;SDS011;30041;48.300;16.352;2023-03-14T04:40:08;0.50;;;0.30;;
43311;SDS011;30041;48.300;16.352;2023-03-14T04:42:35;0.40;;;0.30;;
43311;SDS011;30041;48.300;16.352;2023-03-14T04:45:00;0.20;;;0.20;;
43311;SDS011;30041;48.300;16.352;2023-03-14T04:47:26;0.30;;;0.30;;
43311;SDS011;30041;48.300;16.352;2023-03-14T04:49:52;0.30;;;0.22;;
43311;SDS011;30041;48.300;16.352;2023-03-14T04:52:17;0.52;;;0.30;;
43311;SDS011;30041;48.300;16.352;2023-03-14T04:54:43;0.28;;;0.20;;
43311;SDS011;30041;48.300;16.352;2023-03-14T04:57:08;0.28;;;0.28;;
43311;SDS011;30041;48.300;16.352;2023-03-14T04:59:34;0.50;;;0.30;;
43311;SDS011;30041;48.300;16.352;2023-03-14T05:01:59;0.28;;;0.25;;
43311;SDS011;30041;48.300;16.352;2023-03-14T05:04:25;0.20;;;0.20;;
43311;SDS011;30041;48.300;16.352;2023-03-14T05:06:50;0.80;;;0.30;;
43311;SDS011;30041;48.300;16.352;2023-03-14T05:09:16;0.20;;;0.20;;
43311;SDS011;30041;48.300;16.352;2023-03-14T05:11:41;0.32;;;0.20;;
43311;SDS011;30041;48.300;16.352;2023-03-14T05:14:08;0.10;;;0.10;;
43311;SDS011;30041;48.300;16.352;2023-03-14T05:16:34;0.20;;;0.20;;
43311;SDS011;30041;48.300;16.352;2023-03-14T05:19:00;0.60;;;0.30;;
43311;SDS011;30041;48.300;16.352;2023-03-14T05:21:25;0.17;;;0.13;;
43311;SDS011;30041;48.300;16.352;2023-03-14T05:23:51;0.10;;;0.10;;
43311;SDS011;30041;48.300;16.352;2023-03-14T05:26:21;0.10;;;0.00;;
43311;SDS011;30041;48.300;16.352;2023-03-14T05:28:47;0.52;;;0.25;;
43311;SDS011;30041;48.300;16.352;2023-03-14T05:31:12;0.20;;;0.10;;
43311;SDS011;30041;48.300;16.352;2023-03-14T05:33:38;0.30;;;0.20;;
43311;SDS011;30041;48.300;16.352;2023-03-14T05:36:03;0.10;;;0.05;;
43311;SDS011;30041;48.300;16.352;2023-03-14T05:38:29;0.13;;;0.10;;
43311;SDS011;30041;48.300;16.352;2023-03-14T05:40:55;0.00;;;0.00;;
43311;SDS011;30041;48.300;16.352;2023-03-14T05:43:20;0.17;;;0.10;;
43311;SDS011;30041;48.300;16.352;2023-03-14T05:45:46;0.05;;;0.05;;
43311;SDS011;30041;48.300;16.352;2023-03-14T05:48:11;0.03;;;0.03;;
43311;SDS011;30041;48.300;16.352;2023-03-14T05:50:37;0.10;;;0.10;;
43311;SDS011;30041;48.300;16.352;2023-03-14T05:53:02;0.20;;;0.10;;
43311;SDS011;30041;48.300;16.352;2023-03-14T05:55:28;0.10;;;0.10;;
43311;SDS011;30041;48.300;16.352;2023-03-14T05:57:54;0.05;;;0.05;;
43311;SDS011;30041;48.300;16.352;2023-03-14T06:00:20;0.10;;;0.10;;
43311;SDS011;30041;48.300;16.352;2023-03-14T06:02:46;0.10;;;0.00;;
43311;SDS011;30041;48.300;16.352;2023-03-14T06:05:12;0.10;;;0.10;;
43311;SDS011;30041;48.300;16.352;2023-03-14T06:07:37;0.10;;;0.08;;
43311;SDS011;30041;48.300;16.352;2023-03-14T06:10:03;0.08;;;0.08;;
43311;SDS011;30041;48.300;16.352;2023-03-14T06:12:29;0.05;;;0.05;;
43311;SDS011;30041;48.300;16.352;2023-03-14T06:14:55;0.00;;;0.00;;
43311;SDS011;30041;48.300;16.352;2023-03-14T06:17:20;0.00;;;0.00;;
43311;SDS011;30041;48.300;16.352;2023-03-14T06:19:46;0.10;;;0.03;;
43311;SDS011;30041;48.300;16.352;2023-03-14T06:22:14;0.20;;;0.10;;
43311;SDS011;30041;48.300;16.352;2023-03-14T06:24:40;0.10;;;0.10;;
43311;SDS011;30041;48.300;16.352;2023-03-14T06:27:05;0.00;;;0.00;;
43311;SDS011;30041;48.300;16.352;2023-03-14T06:29:31;0.43;;;0.10;;
43311;SDS011;30041;48.300;16.352;2023-03-14T06:31:56;11.43;;;2.08;;
43311;SDS011;30041;48.300;16.352;2023-03-14T06:34:24;6.93;;;2.53;;
43311;SDS011;30041;48.300;16.352;2023-03-14T06:36:52;9.65;;;2.25;;
43311;SDS011;30041;48.300;16.352;2023-03-14T06:39:17;7.97;;;2.28;;
43311;SDS011;30041;48.300;16.352;2023-03-14T06:41:43;12.18;;;2.40;;
43311;SDS011;30041;48.300;16.352;2023-03-14T06:44:11;9.00;;;2.10;;
43311;SDS011;30041;48.300;16.352;2023-03-14T06:46:36;6.95;;;2.10;;
43311;SDS011;30041;48.300;16.352;2023-03-14T06:49:02;8.60;;;2.30;;
43311;SDS011;30041;48.300;16.352;2023-03-14T06:51:27;10.95;;;2.40;;
43311;SDS011;30041;48.300;16.352;2023-03-14T06:53:53;8.20;;;2.22;;
43311;SDS011;30041;48.300;16.352;2023-03-14T06:56:19;8.57;;;2.13;;
43311;SDS011;30041;48.300;16.352;2023-03-14T06:58:47;4.60;;;1.98;;
43311;SDS011;30041;48.300;16.352;2023-03-14T07:01:26;6.18;;;2.22;;
43311;SDS011;30041;48.300;16.352;2023-03-14T07:03:53;5.60;;;2.30;;
43311;SDS011;30041;48.300;16.352;2023-03-14T07:06:19;6.72;;;2.28;;
43311;SDS011;30041;48.300;16.352;2023-03-14T07:08:44;10.20;;;2.50;;
43311;SDS011;30041;48.300;16.352;2023-03-14T07:11:10;10.05;;;2.30;;
43311;SDS011;30041;48.300;16.352;2023-03-14T07:13:37;10.40;;;2.97;;
43311;SDS011;30041;48.300;16.352;2023-03-14T07:16:04;9.95;;;3.90;;
43311;SDS011;30041;48.300;16.352;2023-03-14T07:18:30;8.23;;;4.97;;
43311;SDS011;30041;48.300;16.352;2023-03-14T07:20:55;7.93;;;4.18;;
43311;SDS011;30041;48.300;16.352;2023-03-14T07:23:21;16.35;;;4.53;;
43311;SDS011;30041;48.300;16.352;2023-03-14T07:25:47;10.90;;;4.10;;
43311;SDS011;30041;48.300;16.352;2023-03-14T07:28:12;11.45;;;4.00;;
43311;SDS011;30041;48.300;16.352;2023-03-14T07:30:40;7.40;;;3.10;;
43311;SDS011;30041;48.300;16.352;2023-03-14T07:33:06;10.98;;;2.65;;
43311;SDS011;30041;48.300;16.352;2023-03-14T07:35:31;7.95;;;2.60;;
43311;SDS011;30041;48.300;16.352;2023-03-14T07:37:57;9.63;;;2.92;;
43311;SDS011;30041;48.300;16.352;2023-03-14T07:40:22;7.90;;;2.92;;
43311;SDS011;30041;48.300;16.352;2023-03-14T07:42:48;11.45;;;3.05;;
43311;SDS011;30041;48.300;16.352;2023-03-14T07:45:13;7.18;;;2.88;;
43311;SDS011;30041;48.300;16.352;2023-03-14T07:47:39;8.65;;;2.58;;
43311;SDS011;30041;48.300;16.352;2023-03-14T07:50:08;9.27;;;2.70;;
43311;SDS011;30041;48.300;16.352;2023-03-14T07:52:34;6.07;;;2.45;;
43311;SDS011;30041;48.300;16.352;2023-03-14T07:55:00;7.15;;;2.53;;
43311;SDS011;30041;48.300;16.352;2023-03-14T07:57:25;8.23;;;2.28;;
43311;SDS011;30041;48.300;16.352;2023-03-14T07:59:51;7.38;;;2.47;;
43311;SDS011;30041;48.300;16.352;2023-03-14T08:02:17;6.00;;;2.42;;
43311;SDS011;30041;48.300;16.352;2023-03-14T08:04:45;8.63;;;2.42;;
43311;SDS011;30041;48.300;16.352;2023-03-14T08:07:11;5.15;;;2.20;;
43311;SDS011;30041;48.300;16.352;2023-03-14T08:09:36;6.05;;;2.13;;
43311;SDS011;30041;48.300;16.352;2023-03-14T08:12:02;3.53;;;1.95;;
43311;SDS011;30041;48.300;16.352;2023-03-14T08:14:28;3.40;;;2.00;;
43311;SDS011;30041;48.300;16.352;2023-03-14T08:16:54;6.30;;;2.30;;
43311;SDS011;30041;48.300;16.352;2023-03-14T08:19:19;5.93;;;2.25;;
43311;SDS011;30041;48.300;16.352;2023-03-14T08:21:44;4.15;;;2.20;;
43311;SDS011;30041;48.300;16.352;2023-03-14T08:24:10;4.30;;;1.95;;
43311;SDS011;30041;48.300;16.352;2023-03-14T08:26:36;4.30;;;2.08;;
43311;SDS011;30041;48.300;16.352;2023-03-14T08:29:01;3.97;;;1.83;;
43311;SDS011;30041;48.300;16.352;2023-03-14T08:31:27;5.90;;;2.30;;
43311;SDS011;30041;48.300;16.352;2023-03-14T08:33:52;4.38;;;2.13;;
43311;SDS011;30041;48.300;16.352;2023-03-14T08:36:18;5.80;;;2.30;;
43311;SDS011;30041;48.300;16.352;2023-03-14T08:38:44;4.43;;;2.00;;
43311;SDS011;30041;48.300;16.352;2023-03-14T08:41:10;4.15;;;1.60;;
43311;SDS011;30041;48.300;16.352;2023-03-14T08:43:36;2.92;;;1.90;;
43311;SDS011;30041;48.300;16.352;2023-03-14T08:46:01;4.20;;;1.95;;
43311;SDS011;30041;48.300;16.352;2023-03-14T08:48:28;4.35;;;1.70;;
43311;SDS011;30041;48.300;16.352;2023-03-14T08:50:55;6.07;;;2.00;;
43311;SDS011;30041;48.300;16.352;2023-03-14T08:53:22;3.13;;;1.75;;
43311;SDS011;30041;48.300;16.352;2023-03-14T08:55:52;5.13;;;2.05;;
43311;SDS011;30041;48.300;16.352;2023-03-14T08:58:18;6.00;;;1.90;;
43311;SDS011;30041;48.300;16.352;2023-03-14T09:00:43;5.47;;;1.73;;
43311;SDS011;30041;48.300;16.352;2023-03-14T09:03:11;3.45;;;1.80;;
43311;SDS011;30041;48.300;16.352;2023-03-14T09:05:37;3.60;;;2.00;;
43311;SDS011;30041;48.300;16.352;2023-03-14T09:08:02;4.40;;;1.70;;
43311;SDS011;30041;48.300;16.352;2023-03-14T09:10:28;3.95;;;1.80;;
43311;SDS011;30041;48.300;16.352;2023-03-14T09:12:54;4.22;;;1.80;;
43311;SDS011;30041;48.300;16.352;2023-03-14T09:15:19;3.63;;;1.88;;
43311;SDS011;30041;48.300;16.352;2023-03-14T09:17:45;2.70;;;1.83;;
43311;SDS011;30041;48.300;16.352;2023-03-14T09:20:11;4.57;;;1.85;;
43311;SDS011;30041;48.300;16.352;2023-03-14T09:22:36;3.17;;;1.88;;
43311;SDS011;30041;48.300;16.352;2023-03-14T09:25:03;3.08;;;1.70;;
43311;SDS011;30041;48.300;16.352;2023-03-14T09:27:29;3.70;;;1.70;;
43311;SDS011;30041;48.300;16.352;2023-03-14T09:29:54;3.45;;;1.75;;
43311;SDS011;30041;48.300;16.352;2023-03-14T09:32:19;3.60;;;1.73;;
43311;SDS011;30041;48.300;16.352;2023-03-14T09:34:45;2.95;;;1.70;;
43311;SDS011;30041;48.300;16.352;2023-03-14T09:37:13;3.15;;;1.55;;
43311;SDS011;30041;48.300;16.352;2023-03-14T09:39:39;3.67;;;1.80;;
43311;SDS011;30041;48.300;16.352;2023-03-14T09:42:05;3.13;;;1.58;;
43311;SDS011;30041;48.300;16.352;2023-03-14T09:44:35;3.42;;;1.80;;
43311;SDS011;30041;48.300;16.352;2023-03-14T09:47:05;4.15;;;1.80;;
43311;SDS011;30041;48.300;16.352;2023-03-14T09:49:44;2.85;;;1.65;;
43311;SDS011;30041;48.300;16.352;2023-03-14T09:52:14;3.10;;;1.77;;
43311;SDS011;30041;48.300;16.352;2023-03-14T09:54:44;3.10;;;1.73;;
43311;SDS011;30041;48.300;16.352;2023-03-14T09:57:20;3.40;;;1.83;;
43311;SDS011;30041;48.300;16.352;2023-03-14T09:59:49;2.83;;;1.63;;
43311;SDS011;30041;48.300;16.352;2023-03-14T10:02:23;5.22;;;3.25;;
43311;SDS011;30041;48.300;16.352;2023-03-14T10:04:51;6.97;;;3.40;;
43311;SDS011;30041;48.300;16.352;2023-03-14T10:07:19;5.35;;;2.70;;
43311;SDS011;30041;48.300;16.352;2023-03-14T10:09:53;3.88;;;2.40;;
43311;SDS011;30041;48.300;16.352;2023-03-14T10:12:21;4.25;;;2.20;;
43311;SDS011;30041;48.300;16.352;2023-03-14T10:15:01;4.97;;;2.20;;
43311;SDS011;30041;48.300;16.352;2023-03-14T10:17:41;3.70;;;2.50;;
43311;SDS011;30041;48.300;16.352;2023-03-14T10:20:27;4.13;;;2.05;;
43311;SDS011;30041;48.300;16.352;2023-03-14T10:22:56;3.80;;;2.22;;
43311;SDS011;30041;48.300;16.352;2023-03-14T10:25:27;4.13;;;2.20;;
43311;SDS011;30041;48.300;16.352;2023-03-14T10:27:54;4.05;;;2.10;;
43311;SDS011;30041;48.300;16.352;2023-03-14T10:30:27;4.95;;;2.10;;
43311;SDS011;30041;48.300;16.352;2023-03-14T10:32:59;3.35;;;1.98;;
43311;SDS011;30041;48.300;16.352;2023-03-14T10:35:34;6.68;;;2.55;;
43311;SDS011;30041;48.300;16.352;2023-03-14T10:38:00;3.38;;;2.10;;
43311;SDS011;30041;48.300;16.352;2023-03-14T10:40:47;3.05;;;1.90;;
43311;SDS011;30041;48.300;16.352;2023-03-14T10:43:24;4.20;;;1.90;;
43311;SDS011;30041;48.300;16.352;2023-03-14T10:45:54;5.07;;;2.03;;
43311;SDS011;30041;48.300;16.352;2023-03-14T10:48:29;5.00;;;2.00;;
43311;SDS011;30041;48.300;16.352;2023-03-14T10:51:04;3.05;;;1.80;;
43311;SDS011;30041;48.300;16.352;2023-03-14T10:56:23;4.00;;;2.00;;
43311;SDS011;30041;48.300;16.352;2023-03-14T10:58:50;3.83;;;2.03;;
43311;SDS011;30041;48.300;16.352;2023-03-14T11:03:47;4.43;;;2.38;;
43311;SDS011;30041;48.300;16.352;2023-03-14T11:12:22;4.82;;;2.05;;
43311;SDS011;30041;48.300;16.352;2023-03-14T11:15:20;3.38;;;1.77;;
43311;SDS011;30041;48.300;16.352;2023-03-14T11:20:35;4.07;;;2.13;;
43311;SDS011;30041;48.300;16.352;2023-03-14T11:23:18;3.70;;;2.22;;
43311;SDS011;30041;48.300;16.352;2023-03-14T11:28:23;7.22;;;3.05;;
43311;SDS011;30041;48.300;16.352;2023-03-14T11:31:04;7.60;;;3.25;;
43311;SDS011;30041;48.300;16.352;2023-03-14T11:34:06;8.20;;;2.83;;
43311;SDS011;30041;48.300;16.352;2023-03-14T11:39:46;6.03;;;2.70;;
43311;SDS011;30041;48.300;16.352;2023-03-14T11:42:31;6.72;;;2.20;;
43311;SDS011;30041;48.300;16.352;2023-03-14T11:44:58;4.15;;;2.28;;
43311;SDS011;30041;48.300;16.352;2023-03-14T11:47:37;4.88;;;2.47;;
43311;SDS011;30041;48.300;16.352;2023-03-14T11:52:42;5.15;;;2.80;;
43311;SDS011;30041;48.300;16.352;2023-03-14T11:55:24;5.07;;;2.70;;
43311;SDS011;30041;48.300;16.352;2023-03-14T11:57:56;6.07;;;2.78;;
43311;SDS011;30041;48.300;16.352;2023-03-14T12:00:26;6.85;;;2.67;;
43311;SDS011;30041;48.300;16.352;2023-03-14T12:05:31;6.30;;;2.60;;
43311;SDS011;30041;48.300;16.352;2023-03-14T12:13:07;6.10;;;2.45;;
43311;SDS011;30041;48.300;16.352;2023-03-14T12:15:34;7.38;;;2.53;;
43311;SDS011;30041;48.300;16.352;2023-03-14T12:18:12;7.80;;;2.60;;
43311;SDS011;30041;48.300;16.352;2023-03-14T12:20:55;6.07;;;2.73;;
43311;SDS011;30041;48.300;16.352;2023-03-14T12:23:23;8.02;;;2.60;;
43311;SDS011;30041;48.300;16.352;2023-03-14T12:26:07;6.65;;;2.70;;
43311;SDS011;30041;48.300;16.352;2023-03-14T12:28:32;7.50;;;2.55;;
43311;SDS011;30041;48.300;16.352;2023-03-14T12:31:25;9.32;;;2.90;;
43311;SDS011;30041;48.300;16.352;2023-03-14T12:39:13;6.50;;;2.50;;
43311;SDS011;30041;48.300;16.352;2023-03-14T12:42:04;5.07;;;2.35;;
43311;SDS011;30041;48.300;16.352;2023-03-14T12:44:42;6.60;;;2.78;;
43311;SDS011;30041;48.300;16.352;2023-03-14T12:49:46;6.93;;;2.22;;
43311;SDS011;30041;48.300;16.352;2023-03-14T12:52:19;6.13;;;2.25;;
43311;SDS011;30041;48.300;16.352;2023-03-14T12:57:42;4.43;;;2.30;;
43311;SDS011;30041;48.300;16.352;2023-03-14T13:02:48;6.85;;;2.17;;
43311;SDS011;30041;48.300;16.352;2023-03-14T13:05:18;6.82;;;2.28;;
43311;SDS011;30041;48.300;16.352;2023-03-14T13:12:56;4.15;;;2.08;;
43311;SDS011;30041;48.300;16.352;2023-03-14T13:15:34;5.75;;;2.05;;
43311;SDS011;30041;48.300;16.352;2023-03-14T13:20:41;4.25;;;2.20;;
43311;SDS011;30041;48.300;16.352;2023-03-14T13:26:13;5.07;;;2.03;;
43311;SDS011;30041;48.300;16.352;2023-03-14T13:28:39;5.15;;;2.10;;
43311;SDS011;30041;48.300;16.352;2023-03-14T13:31:22;4.45;;;1.95;;
43311;SDS011;30041;48.300;16.352;2023-03-14T13:34:02;8.75;;;2.10;;
43311;SDS011;30041;48.300;16.352;2023-03-14T13:36:31;4.90;;;1.80;;
43311;SDS011;30041;48.300;16.352;2023-03-14T13:39:00;4.03;;;1.58;;
43311;SDS011;30041;48.300;16.352;2023-03-14T13:41:30;3.97;;;1.95;;
43311;SDS011;30041;48.300;16.352;2023-03-14T13:44:01;5.20;;;2.65;;
43311;SDS011;30041;48.300;16.352;2023-03-14T13:46:48;5.38;;;2.75;;
43311;SDS011;30041;48.300;16.352;2023-03-14T13:49:20;6.03;;;2.72;;
43311;SDS011;30041;48.300;16.352;2023-03-14T13:51:48;5.93;;;2.50;;
43311;SDS011;30041;48.300;16.352;2023-03-14T13:54:15;4.32;;;2.83;;
43311;SDS011;30041;48.300;16.352;2023-03-14T13:56:42;6.55;;;2.90;;
43311;SDS011;30041;48.300;16.352;2023-03-14T13:59:21;6.80;;;3.10;;
43311;SDS011;30041;48.300;16.352;2023-03-14T14:01:52;6.40;;;3.72;;
43311;SDS011;30041;48.300;16.352;2023-03-14T14:04:19;7.22;;;3.70;;
43311;SDS011;30041;48.300;16.352;2023-03-14T14:06:48;5.95;;;3.75;;
43311;SDS011;30041;48.300;16.352;2023-03-14T14:09:39;7.15;;;4.03;;
43311;SDS011;30041;48.300;16.352;2023-03-14T14:12:28;6.72;;;4.43;;
43311;SDS011;30041;48.300;16.352;2023-03-14T14:15:06;8.18;;;4.70;;
43311;SDS011;30041;48.300;16.352;2023-03-14T14:17:44;6.45;;;4.25;;
43311;SDS011;30041;48.300;16.352;2023-03-14T14:20:26;8.15;;;4.88;;
43311;SDS011;30041;48.300;16.352;2023-03-14T14:23:02;7.88;;;5.07;;
43311;SDS011;30041;48.300;16.352;2023-03-14T14:25:34;6.80;;;4.70;;
43311;SDS011;30041;48.300;16.352;2023-03-14T14:28:13;7.78;;;5.05;;
43311;SDS011;30041;48.300;16.352;2023-03-14T14:30:42;6.78;;;4.75;;
43311;SDS011;30041;48.300;16.352;2023-03-14T14:33:18;7.22;;;4.80;;
43311;SDS011;30041;48.300;16.352;2023-03-14T14:35:58;9.05;;;5.05;;
43311;SDS011;30041;48.300;16.352;2023-03-14T14:38:25;6.57;;;4.53;;
43311;SDS011;30041;48.300;16.352;2023-03-14T14:40:53;6.93;;;4.30;;
43311;SDS011;30041;48.300;16.352;2023-03-14T14:43:26;7.65;;;5.05;;
43311;SDS011;30041;48.300;16.352;2023-03-14T14:45:55;7.63;;;4.53;;
43311;SDS011;30041;48.300;16.352;2023-03-14T14:48:22;6.25;;;4.28;;
43311;SDS011;30041;48.300;16.352;2023-03-14T14:50:54;7.10;;;4.65;;
43311;SDS011;30041;48.300;16.352;2023-03-14T14:53:34;6.05;;;4.90;;
43311;SDS011;30041;48.300;16.352;2023-03-14T14:56:18;6.18;;;4.38;;
43311;SDS011;30041;48.300;16.352;2023-03-14T14:58:45;7.10;;;4.57;;
43311;SDS011;30041;48.300;16.352;2023-03-14T15:01:14;6.88;;;4.50;;
43311;SDS011;30041;48.300;16.352;2023-03-14T15:03:42;5.88;;;4.35;;
43311;SDS011;30041;48.300;16.352;2023-03-14T15:06:13;5.90;;;4.45;;
43311;SDS011;30041;48.300;16.352;2023-03-14T15:08:40;6.88;;;4.47;;
43311;SDS011;30041;48.300;16.352;2023-03-14T15:11:08;6.00;;;4.05;;
43311;SDS011;30041;48.300;16.352;2023-03-14T15:13:40;6.72;;;4.22;;
43311;SDS011;30041;48.300;16.352;2023-03-14T15:16:08;6.32;;;4.13;;
43311;SDS011;30041;48.300;16.352;2023-03-14T15:18:36;5.32;;;3.95;;
43311;SDS011;30041;48.300;16.352;2023-03-14T15:21:01;5.28;;;4.00;;
43311;SDS011;30041;48.300;16.352;2023-03-14T15:23:27;5.85;;;4.07;;
43311;SDS011;30041;48.300;16.352;2023-03-14T15:25:53;5.32;;;4.03;;
43311;SDS011;30041;48.300;16.352;2023-03-14T15:28:20;5.75;;;4.18;;
43311;SDS011;30041;48.300;16.352;2023-03-14T15:30:50;6.15;;;3.78;;
43311;SDS011;30041;48.300;16.352;2023-03-14T15:33:17;5.95;;;3.90;;
43311;SDS011;30041;48.300;16.352;2023-03-14T15:35:43;5.90;;;3.83;;
43311;SDS011;30041;48.300;16.352;2023-03-14T15:38:13;6.97;;;4.15;;
43311;SDS011;30041;48.300;16.352;2023-03-14T15:40:41;6.43;;;3.78;;
43311;SDS011;30041;48.300;16.352;2023-03-14T15:43:07;7.53;;;3.92;;